createdAt,value
2019-05-22T00:01:34.721Z,14.86
2019-05-22T00:04:34.525Z,14.87
2019-05-22T00:07:09.457Z,14.89
2019-05-22T00:09:42.543Z,14.92
2019-05-22T00:12:19.110Z,14.94
2019-05-22T00:14:52.874Z,14.94
2019-05-22T00:17:32.413Z,14.98
2019-05-22T00:20:06.723Z,15.01
2019-05-22T00:22:41.582Z,15.05
2019-05-22T00:25:21.106Z,15.08
2019-05-22T00:27:54.165Z,15.11
2019-05-22T00:30:27.446Z,15.14
2019-05-22T00:33:02.327Z,15.16
2019-05-22T00:35:34.610Z,15.18
2019-05-22T00:38:07.502Z,15.18
2019-05-22T00:40:47.296Z,15.20
2019-05-22T00:43:18.736Z,15.12
2019-05-22T00:45:52.408Z,15.12
2019-05-22T00:48:25.264Z,15.16
2019-05-22T00:51:18.196Z,15.14
2019-05-22T00:54:09.772Z,15.18
2019-05-22T00:56:59.328Z,15.21
2019-05-22T00:59:33.809Z,15.23
2019-05-22T01:02:09.719Z,15.28
2019-05-22T01:04:42.639Z,15.27
2019-05-22T01:07:18.040Z,15.32
2019-05-22T01:09:55.855Z,15.33
2019-05-22T01:12:29.724Z,15.32
2019-05-22T01:15:08.312Z,15.36
2019-05-22T01:17:41.737Z,15.41
2019-05-22T01:20:16.683Z,15.41
2019-05-22T01:22:51.687Z,15.42
2019-05-22T01:25:24.337Z,15.42
2019-05-22T01:27:58.267Z,15.47
2019-05-22T01:30:43.601Z,15.51
2019-05-22T01:33:21.221Z,15.55
2019-05-22T01:36:11.190Z,15.58
2019-05-22T01:38:43.481Z,15.59
2019-05-22T01:41:21.151Z,15.59
2019-05-22T01:43:54.792Z,15.56
2019-05-22T01:46:29.814Z,15.59
2019-05-22T01:49:06.386Z,15.61
2019-05-22T01:51:38.871Z,15.64
2019-05-22T01:54:11.751Z,15.66
2019-05-22T01:56:43.853Z,15.69
2019-05-22T01:59:16.350Z,15.67
2019-05-22T02:01:48.993Z,15.67
2019-05-22T02:04:22.482Z,15.63
2019-05-22T02:06:55.591Z,15.66
2019-05-22T02:09:35.557Z,15.67
2019-05-22T02:12:32.299Z,15.69
2019-05-22T02:15:05.208Z,15.70
2019-05-22T02:17:37.476Z,15.70
2019-05-22T02:20:11.397Z,15.69
2019-05-22T02:22:44.409Z,15.70
2019-05-22T02:25:17.654Z,15.72
2019-05-22T02:27:51.116Z,15.67
2019-05-22T02:30:27.626Z,15.64
2019-05-22T02:33:01.685Z,15.55
2019-05-22T02:35:34.631Z,15.51
2019-05-22T02:38:07.456Z,15.51
2019-05-22T02:40:42.022Z,15.58
2019-05-22T02:43:15.935Z,15.60
2019-05-22T02:45:47.895Z,15.61
2019-05-22T02:48:21.095Z,15.64
2019-05-22T02:50:53.242Z,15.70
2019-05-22T02:53:25.793Z,15.71
2019-05-22T02:55:57.753Z,15.73
2019-05-22T02:58:31.532Z,15.73
2019-05-22T03:01:06.363Z,15.74
2019-05-22T03:03:38.979Z,15.75
2019-05-22T03:06:14.007Z,15.76
2019-05-22T03:09:18.666Z,15.79
2019-05-22T03:12:06.798Z,15.78
2019-05-22T03:14:40.375Z,15.67
2019-05-22T03:17:31.530Z,15.57
2019-05-22T03:20:14.085Z,15.53
2019-05-22T03:22:59.737Z,15.50
2019-05-22T03:25:33.611Z,15.53
2019-05-22T03:28:07.431Z,15.56
2019-05-22T03:30:44.217Z,15.59
2019-05-22T03:33:17.859Z,15.67
2019-05-22T03:35:55.447Z,15.69
2019-05-22T03:38:27.788Z,15.68
2019-05-22T03:41:00.326Z,15.71
2019-05-22T03:43:35.552Z,15.80
2019-05-22T03:46:38.236Z,16.00
2019-05-22T03:49:28.907Z,16.11
2019-05-22T03:51:52.720Z,16.23
2019-05-22T03:54:26.701Z,16.26
2019-05-22T03:56:59.260Z,16.30
2019-05-22T03:59:32.017Z,16.43
2019-05-22T04:02:06.257Z,16.65
2019-05-22T04:04:41.270Z,16.82
2019-05-22T04:07:16.816Z,16.98
2019-05-22T04:09:52.045Z,17.12
2019-05-22T04:12:24.973Z,17.19
2019-05-22T04:14:57.278Z,17.16
2019-05-22T04:17:31.082Z,17.00
2019-05-22T04:20:03.488Z,17.01
2019-05-22T04:22:36.240Z,17.19
2019-05-22T04:25:09.486Z,17.87
2019-05-22T04:27:43.472Z,18.55
2019-05-22T04:30:17.817Z,19.07
2019-05-22T04:32:51.148Z,19.69
2019-05-22T04:35:24.115Z,20.23
2019-05-22T04:37:57.236Z,20.75
2019-05-22T04:40:58.245Z,21.16
2019-05-22T04:43:35.012Z,21.60
2019-05-22T04:46:10.090Z,22.12
2019-05-22T04:48:45.975Z,22.05
2019-05-22T04:51:32.039Z,22.04
2019-05-22T04:54:04.124Z,21.83
2019-05-22T04:56:36.138Z,23.09
2019-05-22T04:59:09.048Z,24.11
2019-05-22T05:01:41.796Z,25.17
2019-05-22T05:04:14.217Z,27.30
2019-05-22T05:06:46.951Z,28.84
2019-05-22T05:09:18.982Z,30.46
2019-05-22T05:11:51.847Z,32.74
2019-05-22T05:14:23.798Z,34.51
2019-05-22T05:16:56.163Z,35.85
2019-05-22T05:19:28.886Z,34.68
2019-05-22T05:22:01.353Z,33.77
2019-05-22T05:24:33.421Z,34.49
2019-05-22T05:27:06.662Z,31.58
2019-05-22T05:29:38.743Z,30.06
2019-05-22T05:32:11.120Z,30.05
2019-05-22T05:35:11.776Z,33.08
2019-05-22T05:37:44.509Z,29.88
2019-05-22T05:40:43.226Z,27.47
2019-05-22T05:43:19.064Z,26.55
2019-05-22T05:45:53.013Z,25.74
2019-05-22T05:48:26.147Z,25.66
2019-05-22T05:51:43.179Z,25.84
2019-05-22T05:54:16.359Z,26.54
2019-05-22T05:56:51.607Z,34.03
2019-05-22T05:59:26.257Z,31.24
2019-05-22T06:02:00.446Z,28.84
2019-05-22T06:04:39.705Z,28.23
2019-05-22T06:07:25.299Z,27.74
2019-05-22T06:10:50.932Z,27.17
2019-05-22T06:13:24.077Z,27.02
2019-05-22T06:17:20.348Z,27.19
2019-05-22T06:19:55.681Z,27.51
2019-05-22T06:22:28.960Z,28.61
2019-05-22T06:25:04.592Z,31.34
2019-05-22T06:27:58.426Z,29.73
2019-05-22T06:30:46.404Z,28.28
2019-05-22T06:33:43.970Z,27.40
2019-05-22T06:36:21.732Z,26.44
2019-05-22T06:39:10.168Z,26.39
2019-05-22T06:41:44.143Z,30.99
2019-05-22T06:44:35.234Z,31.52
2019-05-22T06:47:11.650Z,29.61
2019-05-22T06:49:55.547Z,28.49
2019-05-22T06:52:27.970Z,28.77
2019-05-22T06:55:00.138Z,28.59
2019-05-22T06:57:33.773Z,27.48
2019-05-22T07:00:16.657Z,26.85
2019-05-22T07:02:48.926Z,26.59
2019-05-22T07:05:22.315Z,29.38
2019-05-22T07:07:55.376Z,32.61
2019-05-22T07:10:28.530Z,34.69
2019-05-22T07:13:02.166Z,32.90
2019-05-22T07:15:43.322Z,30.38
2019-05-22T07:18:18.002Z,28.57
2019-05-22T07:20:51.063Z,27.76
2019-05-22T07:23:27.847Z,27.55
2019-05-22T07:26:02.268Z,27.31
2019-05-22T07:28:35.015Z,27.25
2019-05-22T07:31:07.324Z,26.62
2019-05-22T07:33:39.620Z,26.59
2019-05-22T07:36:16.667Z,26.89
2019-05-22T07:38:47.715Z,26.96
2019-05-22T07:41:20.542Z,32.26
2019-05-22T07:43:52.531Z,31.23
2019-05-22T07:46:25.120Z,30.04
2019-05-22T07:48:57.679Z,29.18
2019-05-22T07:51:31.172Z,29.05
2019-05-22T07:54:03.208Z,29.09
2019-05-22T07:56:35.735Z,30.27
2019-05-22T07:59:07.834Z,36.94
2019-05-22T08:01:40.889Z,36.61
2019-05-22T08:04:13.932Z,40.18
2019-05-22T08:06:46.593Z,42.66
2019-05-22T08:09:21.647Z,38.65
2019-05-22T08:11:54.008Z,36.11
2019-05-22T08:14:27.978Z,47.63
2019-05-22T08:17:00.334Z,46.80
2019-05-22T08:19:32.876Z,50.31
2019-05-22T08:22:07.663Z,50.95
2019-05-22T08:24:39.544Z,43.91
2019-05-22T08:27:12.260Z,39.19
2019-05-22T08:29:44.883Z,40.62
2019-05-22T08:32:17.898Z,39.15
2019-05-22T08:34:50.223Z,50.83
2019-05-22T08:37:28.535Z,54.17
2019-05-22T08:40:02.832Z,53.21
2019-05-22T08:42:35.745Z,47.35
2019-05-22T08:45:09.146Z,43.77
2019-05-22T08:47:41.671Z,40.72
2019-05-22T08:50:15.705Z,39.02
2019-05-22T08:52:49.736Z,38.72
2019-05-22T08:55:22.870Z,36.60
2019-05-22T08:57:55.663Z,36.51
2019-05-22T09:00:30.072Z,34.72
2019-05-22T09:03:02.101Z,35.83
2019-05-22T09:05:34.234Z,34.09
2019-05-22T09:08:06.449Z,32.37
2019-05-22T09:10:38.537Z,32.38
2019-05-22T09:13:10.883Z,36.87
2019-05-22T09:15:43.526Z,39.37
2019-05-22T09:18:16.094Z,38.63
2019-05-22T09:20:49.929Z,37.53
2019-05-22T09:23:22.594Z,35.74
2019-05-22T09:25:54.992Z,34.85
2019-05-22T09:28:27.319Z,33.63
2019-05-22T09:30:59.395Z,32.66
2019-05-22T09:33:32.276Z,31.43
2019-05-22T09:36:04.927Z,30.78
2019-05-22T09:38:37.910Z,31.08
2019-05-22T09:41:10.406Z,30.22
2019-05-22T09:43:42.376Z,29.24
2019-05-22T09:46:15.248Z,28.46
2019-05-22T09:48:47.646Z,27.59
2019-05-22T09:51:20.890Z,27.09
2019-05-22T09:53:53.868Z,26.65
2019-05-22T09:56:26.365Z,26.66
2019-05-22T09:58:58.946Z,27.36
2019-05-22T10:01:31.005Z,28.07
2019-05-22T10:04:03.628Z,28.39
2019-05-22T10:06:35.990Z,28.46
2019-05-22T10:09:09.709Z,28.34
2019-05-22T10:11:42.333Z,28.06
2019-05-22T10:14:15.086Z,27.63
2019-05-22T10:16:47.079Z,26.89
2019-05-22T10:19:19.053Z,26.22
2019-05-22T10:21:51.696Z,25.81
2019-05-22T10:24:23.976Z,25.25
2019-05-22T10:26:56.108Z,25.02
2019-05-22T10:29:32.018Z,24.97
2019-05-22T10:32:02.409Z,24.76
2019-05-22T10:34:34.675Z,24.34
2019-05-22T10:37:07.041Z,24.11
2019-05-22T10:39:40.365Z,23.97
2019-05-22T10:42:13.036Z,23.97
2019-05-22T10:44:45.257Z,23.78
2019-05-22T10:47:18.840Z,23.44
2019-05-22T10:49:53.170Z,23.30
2019-05-22T10:52:26.113Z,23.28
2019-05-22T10:54:58.091Z,23.29
2019-05-22T10:57:30.942Z,23.24
2019-05-22T11:00:04.690Z,23.00
2019-05-22T11:02:36.676Z,22.72
2019-05-22T11:05:08.959Z,22.49
2019-05-22T11:07:41.707Z,22.36
2019-05-22T11:10:14.884Z,22.33
2019-05-22T11:12:47.429Z,22.47
2019-05-22T11:15:19.596Z,22.60
2019-05-22T11:17:52.312Z,22.65
2019-05-22T11:20:25.605Z,22.72
2019-05-22T11:22:57.620Z,22.70
2019-05-22T11:25:31.378Z,22.70
2019-05-22T11:28:03.791Z,22.82
2019-05-22T11:30:36.072Z,23.01
2019-05-22T11:33:08.885Z,23.01
2019-05-22T11:35:41.908Z,22.87
2019-05-22T11:38:14.135Z,22.96
2019-05-22T11:40:46.283Z,22.65
2019-05-22T11:43:18.806Z,22.38
2019-05-22T11:45:51.487Z,22.29
2019-05-22T11:48:23.665Z,22.16
2019-05-22T11:50:56.307Z,21.99
2019-05-22T11:53:28.318Z,21.82
2019-05-22T11:56:00.748Z,21.72
2019-05-22T11:58:32.880Z,21.75
2019-05-22T12:01:05.266Z,22.13
2019-05-22T12:03:37.511Z,22.56
2019-05-22T12:06:10.706Z,23.13
2019-05-22T12:08:43.454Z,23.73
2019-05-22T12:11:19.116Z,23.96
2019-05-22T12:13:51.490Z,24.32
2019-05-22T12:16:24.424Z,24.86
2019-05-22T12:18:58.913Z,25.16
2019-05-22T12:21:30.832Z,25.45
2019-05-22T12:24:02.770Z,25.64
2019-05-22T12:26:35.976Z,25.36
2019-05-22T12:29:08.015Z,25.27
2019-05-22T12:31:40.575Z,25.28
2019-05-22T12:34:12.902Z,25.34
2019-05-22T12:36:46.050Z,25.42
2019-05-22T12:39:19.553Z,25.66
2019-05-22T12:41:51.642Z,25.89
2019-05-22T12:44:23.883Z,26.00
2019-05-22T12:46:55.973Z,26.55
2019-05-22T12:49:29.527Z,27.02
2019-05-22T12:52:04.498Z,27.66
2019-05-22T12:54:46.793Z,28.15
2019-05-22T12:57:11.180Z,28.66
2019-05-22T12:59:45.653Z,29.29
2019-05-22T13:02:18.791Z,29.70
2019-05-22T13:04:51.414Z,29.95
2019-05-22T13:07:24.332Z,29.86
2019-05-22T13:09:56.691Z,29.60
2019-05-22T13:12:28.718Z,29.60
2019-05-22T13:15:09.606Z,29.73
2019-05-22T13:17:35.214Z,29.77
2019-05-22T13:20:10.373Z,30.02
2019-05-22T13:22:47.756Z,29.14
2019-05-22T13:25:21.071Z,27.86
2019-05-22T13:27:55.053Z,27.32
2019-05-22T13:30:28.763Z,28.13
2019-05-22T13:33:01.968Z,29.11
2019-05-22T13:35:34.175Z,29.69
2019-05-22T13:38:06.735Z,29.52
2019-05-22T13:40:39.821Z,28.85
2019-05-22T13:43:12.933Z,27.33
2019-05-22T13:45:45.295Z,25.57
2019-05-22T13:48:17.518Z,24.21
2019-05-22T13:50:50.075Z,23.02
2019-05-22T13:53:23.125Z,21.93
2019-05-22T13:55:56.161Z,20.68
2019-05-22T13:58:29.295Z,19.48
2019-05-22T14:01:01.285Z,18.53
2019-05-22T14:03:34.333Z,18.20
2019-05-22T14:06:06.523Z,18.03
2019-05-22T14:08:39.101Z,18.13
2019-05-22T14:11:11.861Z,18.32
2019-05-22T14:13:44.885Z,18.45
2019-05-22T14:16:17.240Z,18.41
2019-05-22T14:18:51.227Z,18.25
2019-05-22T14:21:23.572Z,18.05
2019-05-22T14:23:55.709Z,17.91
2019-05-22T14:26:29.831Z,18.04
2019-05-22T14:29:01.735Z,18.40
2019-05-22T14:31:33.950Z,18.71
2019-05-22T14:34:06.491Z,18.94
2019-05-22T14:36:38.537Z,19.24
2019-05-22T14:39:13.021Z,19.45
2019-05-22T14:41:45.210Z,19.58
2019-05-22T14:44:17.189Z,19.82
2019-05-22T14:46:49.489Z,20.22
2019-05-22T14:49:21.579Z,20.69
2019-05-22T14:51:54.398Z,21.18
2019-05-22T14:54:27.348Z,21.59
2019-05-22T14:56:59.886Z,21.94
2019-05-22T14:59:31.973Z,22.32
2019-05-22T15:02:04.396Z,22.32
2019-05-22T15:04:36.984Z,22.06
2019-05-22T15:07:09.561Z,21.75
2019-05-22T15:09:41.730Z,21.49
2019-05-22T15:12:14.019Z,21.18
2019-05-22T15:14:46.396Z,20.98
2019-05-22T15:17:31.877Z,20.89
2019-05-22T15:19:52.842Z,20.76
2019-05-22T15:22:25.265Z,20.66
2019-05-22T15:24:58.044Z,20.61
2019-05-22T15:27:30.666Z,20.57
2019-05-22T15:30:03.840Z,20.54
2019-05-22T15:32:35.792Z,20.48
2019-05-22T15:35:09.306Z,20.47
2019-05-22T15:37:44.206Z,20.48
2019-05-22T15:40:18.559Z,20.73
2019-05-22T15:42:53.803Z,21.04
2019-05-22T15:45:29.356Z,21.33
2019-05-22T15:48:08.523Z,21.45
2019-05-22T15:50:42.549Z,21.41
2019-05-22T15:53:15.494Z,21.24
2019-05-22T15:55:49.238Z,21.02
2019-05-22T15:58:23.492Z,20.73
2019-05-22T16:00:58.320Z,20.37
2019-05-22T16:03:32.192Z,20.00
2019-05-22T16:06:04.821Z,19.67
2019-05-22T16:08:37.686Z,19.43
2019-05-22T16:11:14.415Z,19.22
2019-05-22T16:13:49.149Z,19.08
2019-05-22T16:16:24.718Z,18.95
2019-05-22T16:19:00.968Z,18.72
2019-05-22T16:21:35.057Z,18.44
2019-05-22T16:24:07.974Z,18.14
2019-05-22T16:26:42.600Z,17.84
2019-05-22T16:29:15.018Z,17.59
2019-05-22T16:31:48.599Z,17.41
2019-05-22T16:34:21.330Z,17.19
2019-05-22T16:36:54.405Z,17.07
2019-05-22T16:39:27.247Z,17.02
2019-05-22T16:41:59.525Z,16.95
2019-05-22T16:44:32.314Z,16.89
2019-05-22T16:47:05.258Z,16.80
2019-05-22T16:49:39.199Z,16.81
2019-05-22T16:52:13.273Z,16.81
2019-05-22T16:54:46.196Z,16.80
2019-05-22T16:57:18.652Z,16.70
2019-05-22T16:59:52.638Z,16.67
2019-05-22T17:02:26.141Z,16.61
2019-05-22T17:05:01.810Z,16.56
2019-05-22T17:07:32.380Z,16.53
2019-05-22T17:10:05.092Z,16.54
2019-05-22T17:12:38.661Z,16.58
2019-05-22T17:15:15.822Z,16.52
2019-05-22T17:17:48.217Z,16.54
2019-05-22T17:20:26.194Z,16.52
2019-05-22T17:22:58.898Z,16.58
2019-05-22T17:25:32.169Z,16.56
2019-05-22T17:28:06.900Z,16.59
2019-05-22T17:30:41.882Z,16.59
2019-05-22T17:33:14.720Z,16.67
2019-05-22T17:35:51.180Z,16.60
2019-05-22T17:38:25.316Z,16.65
2019-05-22T17:40:57.735Z,16.71
2019-05-22T17:43:33.030Z,16.58
2019-05-22T17:46:06.507Z,16.45
2019-05-22T17:48:38.980Z,16.37
2019-05-22T17:51:12.669Z,16.39
2019-05-22T17:53:45.969Z,16.37
2019-05-22T17:56:18.235Z,16.36
2019-05-22T17:58:50.321Z,16.36
2019-05-22T18:01:23.672Z,16.36
2019-05-22T18:03:55.958Z,16.36
2019-05-22T18:06:28.295Z,16.34
2019-05-22T18:09:01.531Z,16.27
2019-05-22T18:11:33.569Z,16.19
2019-05-22T18:14:07.656Z,16.19
2019-05-22T18:16:40.302Z,16.08
2019-05-22T18:19:12.681Z,15.86
2019-05-22T18:21:45.420Z,15.67
2019-05-22T18:24:17.985Z,15.55
2019-05-22T18:26:50.480Z,15.49
2019-05-22T18:29:22.512Z,15.54
2019-05-22T18:31:54.651Z,15.53
2019-05-22T18:34:26.783Z,15.47
2019-05-22T18:36:59.243Z,15.38
2019-05-22T18:39:31.443Z,15.36
2019-05-22T18:42:03.619Z,15.30
2019-05-22T18:44:35.837Z,15.26
2019-05-22T18:47:08.609Z,15.10
2019-05-22T18:49:41.151Z,15.01
2019-05-22T18:52:15.265Z,15.03
2019-05-22T18:54:47.301Z,15.05
2019-05-22T18:57:19.377Z,15.07
2019-05-22T18:59:52.374Z,15.07
2019-05-22T19:02:25.458Z,15.07
2019-05-22T19:04:57.438Z,15.01
2019-05-22T19:07:29.690Z,14.93
2019-05-22T19:10:01.817Z,14.87
2019-05-22T19:12:34.024Z,14.72
2019-05-22T19:15:06.606Z,14.55
2019-05-22T19:17:38.977Z,14.54
2019-05-22T19:20:11.708Z,14.55
2019-05-22T19:22:58.409Z,14.54
2019-05-22T19:25:17.943Z,14.57
2019-05-22T19:27:49.876Z,14.59
2019-05-22T19:30:22.663Z,14.51
2019-05-22T19:32:54.694Z,14.44
2019-05-22T19:35:26.696Z,14.41
2019-05-22T19:37:59.580Z,14.42
2019-05-22T19:40:32.102Z,14.43
2019-05-22T19:43:04.732Z,14.30
2019-05-22T19:45:36.981Z,14.37
2019-05-22T19:48:10.198Z,14.38
2019-05-22T19:50:42.370Z,14.36
2019-05-22T19:53:19.132Z,14.17
2019-05-22T19:55:49.193Z,14.09
2019-05-22T19:58:22.240Z,14.09
2019-05-22T20:00:54.898Z,13.94
2019-05-22T20:03:27.741Z,13.87
2019-05-22T20:06:01.967Z,13.85
2019-05-22T20:08:36.514Z,13.70
2019-05-22T20:11:08.261Z,13.70
2019-05-22T20:13:41.183Z,13.75
2019-05-22T20:16:13.646Z,13.76
2019-05-22T20:18:45.810Z,13.71
2019-05-22T20:21:18.021Z,13.64
2019-05-22T20:23:50.956Z,13.58
2019-05-22T20:26:23.907Z,13.70
2019-05-22T20:28:57.348Z,13.79
2019-05-22T20:31:29.525Z,13.85
2019-05-22T20:34:01.733Z,13.94
2019-05-22T20:36:33.848Z,14.10
2019-05-22T20:39:09.552Z,14.01
2019-05-22T20:41:41.768Z,13.96
2019-05-22T20:44:13.940Z,13.88
2019-05-22T20:46:48.720Z,13.80
2019-05-22T20:49:21.597Z,13.73
2019-05-22T20:51:53.841Z,13.72
2019-05-22T20:54:28.568Z,13.76
2019-05-22T20:57:02.638Z,13.77
2019-05-22T20:59:36.768Z,13.72
2019-05-22T21:02:09.879Z,13.81
2019-05-22T21:04:43.531Z,13.83
2019-05-22T21:07:19.262Z,13.75
2019-05-22T21:09:52.425Z,13.73
2019-05-22T21:12:27.685Z,13.69
2019-05-22T21:15:00.089Z,13.64
2019-05-22T21:17:32.911Z,13.58
2019-05-22T21:20:06.737Z,13.53
2019-05-22T21:22:40.363Z,13.54
2019-05-22T21:25:13.731Z,13.47
2019-05-22T21:27:46.264Z,13.47
2019-05-22T21:30:19.223Z,13.44
2019-05-22T21:32:51.285Z,13.42
2019-05-22T21:35:24.712Z,13.42
2019-05-22T21:37:58.687Z,13.45
2019-05-22T21:40:31.276Z,13.42
2019-05-22T21:43:03.493Z,13.50
2019-05-22T21:45:36.503Z,13.50
2019-05-22T21:48:09.066Z,13.48
2019-05-22T21:50:41.537Z,13.47
2019-05-22T21:53:13.914Z,13.50
2019-05-22T21:55:47.053Z,13.49
2019-05-22T21:58:19.661Z,13.46
2019-05-22T22:01:27.531Z,13.46
2019-05-22T22:04:20.456Z,13.49
2019-05-22T22:06:56.409Z,13.48
2019-05-22T22:09:29.197Z,13.69
2019-05-22T22:12:02.421Z,13.76
2019-05-22T22:14:34.687Z,13.79
2019-05-22T22:17:08.295Z,13.74
2019-05-22T22:19:41.269Z,13.70
2019-05-22T22:22:19.240Z,13.66
2019-05-22T22:24:51.271Z,13.64
2019-05-22T22:27:25.259Z,13.60
2019-05-22T22:29:58.553Z,13.60
2019-05-22T22:32:32.436Z,13.55
2019-05-22T22:35:04.976Z,13.50
2019-05-22T22:37:37.479Z,13.55
2019-05-22T22:40:11.305Z,13.50
2019-05-22T22:42:45.463Z,13.43
2019-05-22T22:45:27.805Z,13.39
2019-05-22T22:48:00.136Z,13.31
2019-05-22T22:50:32.788Z,13.27
2019-05-22T22:53:06.298Z,13.29
2019-05-22T22:55:42.319Z,13.32
2019-05-22T22:58:17.538Z,13.30
2019-05-22T23:00:49.580Z,13.32
2019-05-22T23:03:26.904Z,13.33
2019-05-22T23:05:59.487Z,13.28
2019-05-22T23:08:34.966Z,13.34
2019-05-22T23:11:07.281Z,13.39
2019-05-22T23:13:40.963Z,13.42
2019-05-22T23:16:14.737Z,13.36
2019-05-22T23:19:33.831Z,13.38
2019-05-22T23:22:20.665Z,13.44
2019-05-22T23:24:54.364Z,13.44
2019-05-22T23:27:29.322Z,13.37
2019-05-22T23:30:01.802Z,13.27
2019-05-22T23:32:34.023Z,13.18
2019-05-22T23:35:07.199Z,13.25
2019-05-22T23:37:41.285Z,13.22
2019-05-22T23:40:17.321Z,13.23
2019-05-22T23:42:51.366Z,13.23
2019-05-22T23:45:24.732Z,13.19
2019-05-22T23:48:09.213Z,13.11
2019-05-22T23:50:42.053Z,13.12
2019-05-22T23:53:16.381Z,13.15
2019-05-22T23:55:48.824Z,13.12
2019-05-22T23:58:23.280Z,13.16
